Main page
METAR-TAF:

METAR-TAF

Airports :

Kadala Airport

Chita, Russia

latitude: 52-05N, longitude: 113-29E, elevation: 685 m

Current weather observation

The report was made 35 minutes ago, at 07:30 UTC
Wind 6 kt from the East/Southeast
Temperature 22°C
Humidity 60%
Pressure 1004 hPa
Visibility 10 km or more
Broken clouds at a height of 4000 ft, Cumulonimbus.

METAR: UIAA 300730Z 11003MPS 9999 BKN040CB 22/14 Q1004 R29/70D NOSIG RMK QFE695/0927

Time: 17:05 (08:05 UTC)

Forecast

The report was made 3 hours and 5 minutes ago, at 05:00 UTC
Forecast valid from 30 at 06 UTC to 31 at 06 UTC
Wind 6 kt from the North/Northeast with gusts up to 16 kt
Visibility 10 km or more
Scattered clouds at a height of 2500 ft, Cumulonimbus.
Temporary
from 30 at 06 UTC to 30 at 12 UTC
Visibility: 3100 m
light rain showers

TAF: UIAA 300500Z 3006/3106 03003G08MPS 9999 SCT025CB TEMPO 3006/3012 3100 -SHRA

Weather observations and forecasts of more than 4000 airports (METAR and TAF reports).

The available stations are represented by yellow and red dots on the map.

Hover mouse over dot to see the name of the station.

Then click to see weather observations and forecasts.

To change the map : click on the green buttons with a black cross to zoom in, on the green button with a dash to zoom out, or on the green arrows for adjacent maps.


METAR-TAF: